createdAt,value
2023-09-11T00:02:26.017Z,1922.8724832214766
2023-09-11T00:06:04.030Z,1918.5771812080536
2023-09-11T00:12:14.462Z,1919.4832214765102
2023-09-11T00:15:33.948Z,1896.4161073825503
2023-09-11T00:18:53.989Z,1939.731543624161
2023-09-11T00:22:13.976Z,1922.96644295302
2023-09-11T00:26:49.103Z,2004.0268456375838
2023-09-11T00:30:08.956Z,1994.9530201342282
2023-09-11T00:33:29.144Z,2006.3020134228188
2023-09-11T00:36:49.126Z,1992.9597315436242
2023-09-11T00:40:08.787Z,2069.4026845637586
2023-09-11T00:47:53.131Z,2093.422818791946
2023-09-11T00:51:12.771Z,2109.48322147651
2023-09-11T00:54:31.525Z,2073.9194630872485
2023-09-11T00:57:50.609Z,2138.5906040268455
2023-09-11T01:01:10.177Z,2093.1409395973155
2023-09-11T01:04:30.255Z,2126.040268456376
2023-09-11T01:10:12.875Z,2079.5704697986575
2023-09-11T01:13:32.507Z,2097.973154362416
2023-09-11T01:16:52.702Z,2058.6375838926174
2023-09-11T01:20:13.010Z,2073.51677852349
2023-09-11T01:23:32.639Z,2068.2348993288592
2023-09-11T01:26:52.516Z,2061.3020134228186
2023-09-11T01:30:11.730Z,2091.4295302013425
2023-09-11T01:37:52.966Z,2095.8120805369126
2023-09-11T01:43:35.208Z,2041.1543624161075
2023-09-11T01:46:54.300Z,2006.5771812080536
2023-09-11T01:50:14.161Z,1980.5973154362416
2023-09-11T01:53:33.576Z,1925.7986577181207
2023-09-11T01:56:54.036Z,1879.1476510067114
2023-09-11T02:00:14.252Z,1903.6644295302012
2023-09-11T02:03:34.278Z,1872.6241610738255
2023-09-11T02:06:54.219Z,1859.8322147651006
2023-09-11T02:11:50.617Z,1854.6912751677853
2023-09-11T02:15:10.113Z,1858.993288590604
2023-09-11T02:18:29.951Z,1848.8523489932886
2023-09-11T02:21:49.272Z,1862.4026845637584
2023-09-11T02:25:08.949Z,1809.0402684563758
2023-09-11T02:28:28.953Z,1819.7986577181207
2023-09-11T02:31:51.799Z,1795.1543624161075
2023-09-11T02:35:11.655Z,1736.0738255033557
2023-09-11T02:38:31.556Z,1713.489932885906
2023-09-11T02:47:57.975Z,1704.503355704698
2023-09-11T02:51:17.932Z,1719.765100671141
2023-09-11T02:56:31.601Z,1735.9530201342282
2023-09-11T02:59:51.568Z,1705.6510067114093
2023-09-11T03:03:11.577Z,1695.8791946308725
2023-09-11T03:06:31.639Z,1670.543624161074
2023-09-11T03:09:51.526Z,1729.7919463087248
2023-09-11T03:13:11.444Z,1713.1879194630872
2023-09-11T03:16:31.153Z,1733.1610738255033
2023-09-11T03:19:50.653Z,1676.9597315436242
2023-09-11T03:26:55.991Z,1711.0268456375838
2023-09-11T03:30:15.596Z,1746.6845637583892
2023-09-11T03:36:15.511Z,1754.7181208053692
2023-09-11T03:39:52.820Z,1722.0872483221476
2023-09-11T03:43:12.087Z,1716.8120805369128
2023-09-11T03:46:32.116Z,1767.8590604026845
2023-09-11T03:53:49.761Z,1825.5704697986578
2023-09-11T03:57:09.207Z,1869.8255033557048
2023-09-11T04:00:28.683Z,1807.4832214765102
2023-09-11T04:03:48.084Z,1822.503355704698
2023-09-11T04:07:07.654Z,1786.5838926174497
2023-09-11T04:11:50.260Z,1753.2953020134228
2023-09-11T04:16:35.289Z,1751.96644295302
2023-09-11T04:21:42.331Z,1711.1744966442952
2023-09-11T04:25:02.168Z,1731.9395973154362
2023-09-11T04:28:41.280Z,1677.4295302013422
2023-09-11T04:32:01.341Z,1698.765100671141
2023-09-11T04:35:20.979Z,1703.3557046979865
2023-09-11T04:38:40.991Z,1646.8993288590605
2023-09-11T04:42:00.805Z,1684.0604026845638
2023-09-11T04:45:20.753Z,1728.0
2023-09-11T04:48:39.937Z,1747.8322147651006
2023-09-11T04:51:59.726Z,1744.6778523489934
2023-09-11T04:55:19.510Z,1675.9194630872482
2023-09-11T04:59:26.441Z,1665.1946308724832
2023-09-11T05:02:46.495Z,1670.6778523489934
2023-09-11T05:06:06.286Z,1641.9530201342282
2023-09-11T05:09:25.968Z,1689.3959731543623
2023-09-11T05:12:45.327Z,1658.3489932885907
2023-09-11T05:16:05.655Z,1672.275167785235
2023-09-11T05:19:25.215Z,1627.9463087248323
2023-09-11T05:22:50.100Z,1635.744966442953
2023-09-11T05:26:09.969Z,1655.5503355704698
2023-09-11T05:29:29.811Z,1624.731543624161
2023-09-11T05:32:49.515Z,1610.489932885906
2023-09-11T05:36:09.412Z,1632.2080536912752
2023-09-11T05:39:29.003Z,1619.275167785235
2023-09-11T05:42:50.056Z,1616.8993288590605
2023-09-11T05:46:09.112Z,1638.5302013422818
2023-09-11T05:49:28.956Z,1603.986577181208
2023-09-11T05:52:49.314Z,1601.2818791946308
2023-09-11T05:56:08.950Z,1581.1543624161075
2023-09-11T05:59:28.038Z,1602.1275167785234
2023-09-11T06:02:48.130Z,1614.1476510067114
2023-09-11T06:11:43.646Z,1531.9194630872482
2023-09-11T06:15:03.842Z,1521.4362416107383
2023-09-11T06:18:23.489Z,1503.3154362416108
2023-09-11T06:21:42.924Z,1553.523489932886
2023-09-11T06:29:44.182Z,1515.5704697986578
2023-09-11T06:33:04.518Z,1550.9463087248323
2023-09-11T06:36:23.815Z,1536.8926174496644
2023-09-11T06:39:43.602Z,1517.8724832214766
2023-09-11T06:43:03.810Z,1548.8993288590605
2023-09-11T06:46:23.906Z,1522.3691275167785
2023-09-11T06:49:43.768Z,1503.1476510067114
2023-09-11T06:53:03.895Z,1537.0
2023-09-11T06:56:23.740Z,1462.8053691275168
2023-09-11T06:59:43.454Z,1467.1140939597315
2023-09-11T07:04:01.266Z,1477.8120805369128
2023-09-11T07:07:20.835Z,1456.6912751677853
2023-09-11T07:10:41.942Z,1481.9597315436242
2023-09-11T07:16:42.704Z,1469.2281879194632
2023-09-11T07:20:02.382Z,1445.3489932885907
2023-09-11T07:23:22.472Z,1417.1946308724832
2023-09-11T07:26:42.011Z,1443.751677852349
2023-09-11T07:30:01.060Z,1441.288590604027
2023-09-11T07:34:24.708Z,1468.6577181208054
2023-09-11T07:37:45.149Z,1381.1275167785234
2023-09-11T07:41:05.072Z,1344.3959731543623
2023-09-11T07:44:24.880Z,1338.2013422818793
2023-09-11T07:47:44.374Z,1245.503355704698
2023-09-11T07:51:03.945Z,1247.2147651006712
2023-09-11T07:54:23.387Z,1303.6577181208054
2023-09-11T07:57:42.872Z,1241.6174496644296
2023-09-11T08:01:02.656Z,1266.8724832214766
2023-09-11T08:07:48.137Z,1264.0402684563758
2023-09-11T08:11:08.032Z,1219.7852348993288
2023-09-11T08:14:28.029Z,1245.8724832214766
2023-09-11T08:17:48.313Z,1302.8791946308725
2023-09-11T08:21:08.034Z,1266.8993288590605
2023-09-11T08:24:27.669Z,1255.744966442953
2023-09-11T08:27:47.644Z,1233.3624161073826
2023-09-11T08:31:06.787Z,1219.0268456375838
2023-09-11T08:34:26.409Z,1172.6912751677853
2023-09-11T08:37:46.630Z,1199.5570469798658
2023-09-11T08:42:38.341Z,1168.7181208053692
2023-09-11T08:45:58.571Z,1142.6644295302012
2023-09-11T08:49:17.384Z,1155.0268456375838
2023-09-11T08:52:36.670Z,1137.3557046979865
2023-09-11T08:55:56.941Z,1131.4630872483222
2023-09-11T08:59:17.600Z,1137.3624161073826
2023-09-11T09:03:59.209Z,1119.3758389261745
2023-09-11T09:07:18.744Z,1126.0805369127518
2023-09-11T09:10:38.201Z,1124.758389261745
2023-09-11T09:13:58.094Z,1068.5771812080536
2023-09-11T09:17:17.970Z,1076.1812080536913
2023-09-11T09:22:54.955Z,1113.8859060402685
2023-09-11T09:26:15.856Z,1100.9127516778524
2023-09-11T09:29:50.817Z,1062.3020134228188
2023-09-11T09:33:10.696Z,1076.3087248322147
2023-09-11T09:36:30.784Z,1113.1476510067114
2023-09-11T09:39:50.773Z,1103.8859060402685
2023-09-11T09:43:10.347Z,1036.6912751677853
2023-09-11T09:49:01.695Z,1064.1409395973155
2023-09-11T09:52:21.255Z,1039.8926174496644
2023-09-11T09:59:51.155Z,1053.6845637583892
2023-09-11T10:05:01.637Z,1009.3825503355705
2023-09-11T10:08:21.263Z,969.8053691275168
2023-09-11T10:11:40.746Z,984.0
2023-09-11T10:15:00.747Z,1006.5704697986578
2023-09-11T10:18:19.960Z,957.9328859060403
2023-09-11T10:21:39.974Z,955.2214765100671
2023-09-11T10:26:26.791Z,966.51677852349
2023-09-11T10:29:46.935Z,984.4429530201343
2023-09-11T10:33:07.029Z,997.0939597315436
2023-09-11T10:38:12.124Z,950.0
2023-09-11T10:42:23.322Z,975.510067114094
2023-09-11T10:45:57.743Z,954.7181208053692
2023-09-11T10:49:17.098Z,970.51677852349
2023-09-11T10:53:12.527Z,959.0134228187919
2023-09-11T10:56:31.796Z,948.4765100671141
2023-09-11T10:59:51.280Z,918.6644295302013
2023-09-11T11:03:10.895Z,899.6308724832214
2023-09-11T11:06:30.842Z,900.1677852348994
2023-09-11T11:09:51.094Z,902.7114093959732
2023-09-11T11:13:11.005Z,869.1543624161073
2023-09-11T11:16:30.718Z,888.2348993288591
2023-09-11T11:21:30.717Z,798.6308724832214
2023-09-11T11:24:49.581Z,783.9328859060403
2023-09-11T11:28:09.351Z,782.5771812080537
2023-09-11T11:32:49.734Z,725.6174496644295
2023-09-11T11:36:09.962Z,750.1275167785235
2023-09-11T11:39:29.400Z,735.9261744966443
2023-09-11T11:42:48.991Z,740.3087248322148
2023-09-11T11:46:08.451Z,730.3624161073825
2023-09-11T11:49:28.041Z,728.5637583892617
2023-09-11T11:52:47.993Z,682.6308724832214
2023-09-11T11:57:39.754Z,704.4496644295302
2023-09-11T12:00:59.535Z,710.5771812080537
2023-09-11T12:04:32.129Z,719.3959731543624
2023-09-11T12:07:58.451Z,721.51677852349
2023-09-11T12:11:21.218Z,702.751677852349
2023-09-11T12:14:40.617Z,717.4093959731543
2023-09-11T12:18:00.266Z,679.9127516778524
2023-09-11T12:22:06.729Z,662.1677852348994
2023-09-11T12:25:27.971Z,652.771812080537
2023-09-11T12:28:48.017Z,678.2416107382551
2023-09-11T12:32:08.026Z,652.8926174496644
2023-09-11T12:35:27.906Z,663.8993288590603
2023-09-11T12:38:46.876Z,630.3355704697987
2023-09-11T12:42:06.475Z,653.496644295302
2023-09-11T12:45:25.200Z,625.6375838926175
2023-09-11T12:48:45.768Z,654.8053691275168
2023-09-11T12:52:05.591Z,657.7114093959732
2023-09-11T12:55:25.261Z,640.3624161073825
2023-09-11T12:58:44.590Z,653.7181208053692
2023-09-11T13:02:04.085Z,651.9127516778524
2023-09-11T13:06:48.479Z,655.6644295302013
2023-09-11T13:13:05.405Z,669.7046979865772
2023-09-11T13:16:24.313Z,685.4496644295302
2023-09-11T13:19:43.852Z,706.2147651006711
2023-09-11T13:23:03.324Z,685.5704697986578
2023-09-11T13:26:22.795Z,681.9328859060403
2023-09-11T13:29:42.535Z,719.1744966442953
2023-09-11T13:33:02.644Z,726.5838926174497
2023-09-11T13:36:21.437Z,694.1409395973154
2023-09-11T13:39:40.911Z,699.5637583892617
2023-09-11T13:44:29.664Z,736.3892617449665
2023-09-11T13:47:49.434Z,747.6912751677852
2023-09-11T13:51:09.278Z,728.3422818791946
2023-09-11T13:54:28.291Z,756.255033557047
2023-09-11T14:00:33.153Z,735.9194630872483
2023-09-11T14:03:53.128Z,730.5771812080537
2023-09-11T14:07:12.407Z,737.9798657718121
2023-09-11T14:12:21.302Z,773.1946308724832
2023-09-11T14:15:40.809Z,747.8859060402684
2023-09-11T14:21:19.996Z,768.2684563758389
2023-09-11T14:24:39.141Z,808.7114093959732
2023-09-11T14:27:59.213Z,788.4429530201343
2023-09-11T14:31:18.706Z,778.738255033557
2023-09-11T14:34:38.896Z,773.0939597315436
2023-09-11T14:37:57.950Z,785.503355704698
2023-09-11T14:41:17.545Z,813.5704697986578
2023-09-11T14:44:37.306Z,792.8993288590603
2023-09-11T14:47:57.480Z,818.9261744966443
2023-09-11T14:51:16.900Z,797.3691275167786
2023-09-11T14:54:51.227Z,838.8791946308725
2023-09-11T14:58:13.544Z,855.4630872483222
2023-09-11T15:01:33.413Z,848.6308724832214
2023-09-11T15:04:53.078Z,823.3087248322148
2023-09-11T15:08:13.290Z,875.9865771812081
2023-09-11T15:11:32.394Z,888.1342281879195
2023-09-11T15:14:52.180Z,871.503355704698
2023-09-11T15:18:12.399Z,870.1946308724832
2023-09-11T15:21:32.319Z,887.1006711409397
2023-09-11T15:24:52.419Z,963.2147651006711
2023-09-11T15:28:12.098Z,988.8053691275168
2023-09-11T15:34:26.769Z,1009.0402684563759
2023-09-11T15:37:46.491Z,988.8322147651006
2023-09-11T15:41:05.824Z,963.6174496644295
2023-09-11T15:44:25.730Z,846.0872483221476
2023-09-11T15:47:45.497Z,821.3691275167786
2023-09-11T15:51:05.379Z,845.489932885906
2023-09-11T15:54:25.004Z,835.9664429530201
2023-09-11T15:58:32.551Z,796.8456375838927
2023-09-11T16:01:52.133Z,831.2751677852349
2023-09-11T16:07:03.117Z,830.1677852348994
2023-09-11T16:10:22.692Z,814.1812080536913
2023-09-11T16:13:41.473Z,839.255033557047
2023-09-11T16:17:01.532Z,820.6979865771812
2023-09-11T16:20:20.909Z,838.9530201342282
2023-09-11T16:23:40.284Z,828.3422818791946
2023-09-11T16:26:59.178Z,895.8791946308725
2023-09-11T16:30:18.744Z,895.9664429530201
2023-09-11T16:43:03.055Z,900.2818791946308
2023-09-11T16:46:22.825Z,863.5704697986578
2023-09-11T16:49:42.184Z,873.006711409396
2023-09-11T16:53:02.278Z,863.2751677852349
2023-09-11T16:56:21.459Z,909.2214765100671
2023-09-11T16:59:41.336Z,903.5637583892617
2023-09-11T17:03:01.697Z,875.510067114094
2023-09-11T17:06:21.371Z,868.8053691275168
2023-09-11T17:09:41.292Z,900.0738255033557
2023-09-11T17:13:01.615Z,915.9463087248322
2023-09-11T17:16:21.107Z,912.7986577181208
2023-09-11T17:19:40.779Z,898.9798657718121
2023-09-11T17:23:00.669Z,886.7248322147651
2023-09-11T17:26:28.805Z,860.993288590604
2023-09-11T17:29:48.964Z,879.2348993288591
2023-09-11T17:33:10.604Z,856.1476510067114
2023-09-11T17:36:32.306Z,850.5503355704698
2023-09-11T17:39:51.924Z,865.8322147651006
2023-09-11T17:43:11.200Z,891.6778523489933
2023-09-11T17:46:30.987Z,847.0604026845638
2023-09-11T17:49:51.050Z,884.738255033557
2023-09-11T17:53:10.328Z,851.3489932885906
2023-09-11T17:56:29.510Z,827.8926174496644
2023-09-11T17:59:48.720Z,866.6107382550335
2023-09-11T18:03:08.648Z,880.228187919463
2023-09-11T18:06:28.387Z,901.2818791946308
2023-09-11T18:12:04.217Z,903.6375838926175
2023-09-11T18:15:24.223Z,911.1275167785235
2023-09-11T18:21:20.723Z,950.8053691275168
2023-09-11T18:24:40.230Z,936.0939597315436
2023-09-11T18:28:00.454Z,970.7315436241611
2023-09-11T18:33:54.260Z,969.8053691275168
2023-09-11T18:37:13.782Z,974.48322147651
2023-09-11T18:40:33.364Z,951.9127516778524
2023-09-11T18:43:53.365Z,968.2214765100671
2023-09-11T18:47:13.124Z,1009.5906040268457
2023-09-11T18:50:32.189Z,1025.1744966442952
2023-09-11T18:53:52.296Z,1065.7919463087248
2023-09-11T18:57:11.073Z,1044.711409395973
2023-09-11T19:00:30.861Z,1058.8187919463087
2023-09-11T19:06:55.226Z,1087.8926174496644
2023-09-11T19:10:14.391Z,1106.8791946308725
2023-09-11T19:13:34.085Z,1119.489932885906
2023-09-11T19:16:59.381Z,1106.6442953020135
2023-09-11T19:20:18.858Z,1150.8389261744967
2023-09-11T19:24:00.913Z,1222.1476510067114
2023-09-11T19:29:00.072Z,1315.248322147651
2023-09-11T19:38:46.040Z,1354.4630872483222
2023-09-11T19:51:59.296Z,1395.3288590604027
2023-09-11T19:57:08.773Z,1445.96644295302
2023-09-11T20:03:07.310Z,1427.5369127516778
2023-09-11T20:06:27.591Z,1292.3087248322147
2023-09-11T20:09:47.694Z,1265.489932885906
2023-09-11T20:13:07.219Z,1206.9597315436242
2023-09-11T20:16:26.016Z,1109.765100671141
2023-09-11T20:19:46.014Z,1059.3422818791946
2023-09-11T20:23:06.140Z,1024.3087248322147
2023-09-11T20:26:25.945Z,996.496644295302
2023-09-11T20:31:46.210Z,956.9395973154362
2023-09-11T20:35:47.220Z,954.771812080537
2023-09-11T20:39:07.503Z,1008.4429530201343
2023-09-11T20:42:27.695Z,1064.268456375839
2023-09-11T20:45:47.323Z,1107.6308724832215
2023-09-11T20:49:07.227Z,1024.5570469798658
2023-09-11T20:52:26.605Z,951.9597315436241
2023-09-11T20:55:45.980Z,949.1543624161073
2023-09-11T20:59:05.852Z,965.7046979865772
2023-09-11T21:03:45.338Z,961.9060402684564
2023-09-11T21:07:57.212Z,988.5637583892617
2023-09-11T21:11:16.597Z,1013.7651006711409
2023-09-11T21:14:36.274Z,1038.8993288590605
2023-09-11T21:17:56.527Z,1050.1140939597315
2023-09-11T21:21:16.409Z,1063.3825503355704
2023-09-11T21:24:44.320Z,1029.4630872483222
2023-09-11T21:28:03.285Z,1049.3221476510066
2023-09-11T21:31:23.174Z,1010.738255033557
2023-09-11T21:34:43.155Z,990.9463087248322
2023-09-11T21:38:03.235Z,1003.7852348993289
2023-09-11T21:45:12.639Z,1075.1006711409395
2023-09-11T21:53:05.500Z,1111.9395973154362
2023-09-11T21:56:25.074Z,1078.8053691275168
2023-09-11T21:59:45.179Z,1061.9731543624162
2023-09-11T22:03:05.499Z,1033.993288590604
2023-09-11T22:06:46.026Z,1071.7046979865772
2023-09-11T22:10:05.895Z,1068.013422818792
2023-09-11T22:13:25.165Z,1103.503355704698
2023-09-11T22:16:44.600Z,1098.2080536912752
2023-09-11T22:20:05.755Z,1187.2281879194632
2023-09-11T22:23:40.961Z,1199.2281879194632
2023-09-11T22:30:19.174Z,1267.9463087248323
2023-09-11T22:36:23.597Z,1281.241610738255
2023-09-11T22:39:43.162Z,1293.0738255033557
2023-09-11T22:43:03.454Z,1333.0268456375838
2023-09-11T22:46:23.478Z,1437.986577181208
2023-09-11T22:49:43.100Z,1453.4161073825503
2023-09-11T22:53:03.179Z,1428.5570469798658
2023-09-11T22:56:23.072Z,1457.2818791946308
2023-09-11T22:59:42.558Z,1472.751677852349
2023-09-11T23:03:02.126Z,1435.4630872483222
2023-09-11T23:06:22.247Z,1458.2818791946308
2023-09-11T23:09:41.683Z,1524.4496644295302
2023-09-11T23:13:01.381Z,1527.3959731543623
2023-09-11T23:16:20.871Z,1556.8456375838925
2023-09-11T23:19:40.621Z,1599.3624161073826
2023-09-11T23:23:00.719Z,1748.2953020134228
2023-09-11T23:26:19.582Z,1835.2617449664428
2023-09-11T23:29:39.054Z,1851.0738255033557
2023-09-11T23:32:59.456Z,1824.0872483221476
2023-09-11T23:38:33.059Z,1828.3489932885907
2023-09-11T23:41:53.664Z,1851.9194630872482
2023-09-11T23:45:13.078Z,1801.5704697986578
2023-09-11T23:48:32.961Z,1832.221476510067
2023-09-11T23:51:53.010Z,1855.979865771812
2023-09-11T23:55:12.548Z,1818.4697986577182
2023-09-11T23:58:32.381Z,1824.489932885906
